createdAt,value
2018-07-10T00:00:48.837Z,3.73
2018-07-10T00:03:15.680Z,3.33
2018-07-10T00:05:42.511Z,3.03
2018-07-10T00:08:09.405Z,3.20
2018-07-10T00:10:36.195Z,2.77
2018-07-10T00:13:03.005Z,6.27
2018-07-10T00:15:29.832Z,2.80
2018-07-10T00:17:56.658Z,2.40
2018-07-10T00:20:23.869Z,3.30
2018-07-10T00:22:50.611Z,2.60
2018-07-10T00:25:17.438Z,2.60
2018-07-10T00:27:44.261Z,2.50
2018-07-10T00:30:11.078Z,2.90
2018-07-10T00:32:38.332Z,3.08
2018-07-10T00:35:05.063Z,2.83
2018-07-10T00:37:31.900Z,3.27
2018-07-10T00:39:58.728Z,2.60
2018-07-10T00:42:25.573Z,2.97
2018-07-10T00:44:52.407Z,2.30
2018-07-10T00:47:19.239Z,2.70
2018-07-10T00:49:46.064Z,3.17
2018-07-10T00:52:12.946Z,4.53
2018-07-10T00:54:39.785Z,2.50
2018-07-10T00:57:06.626Z,2.60
2018-07-10T00:59:33.453Z,2.80
2018-07-10T01:02:00.343Z,2.27
2018-07-10T01:04:27.163Z,3.20
2018-07-10T01:06:53.973Z,2.70
2018-07-10T01:09:20.822Z,3.50
2018-07-10T01:11:47.694Z,3.00
2018-07-10T01:14:14.514Z,2.80
2018-07-10T01:16:41.325Z,2.83
2018-07-10T01:19:08.156Z,2.97
2018-07-10T01:21:35.065Z,2.65
2018-07-10T01:24:01.886Z,3.40
2018-07-10T01:26:28.714Z,2.80
2018-07-10T01:28:55.529Z,3.60
2018-07-10T01:31:22.437Z,6.00
2018-07-10T01:33:49.297Z,3.30
2018-07-10T01:36:16.096Z,2.90
2018-07-10T01:38:42.925Z,2.63
2018-07-10T01:41:09.804Z,3.03
2018-07-10T01:43:36.624Z,3.10
2018-07-10T01:46:03.462Z,2.67
2018-07-10T01:48:30.282Z,3.17
2018-07-10T01:50:57.169Z,3.53
2018-07-10T01:53:24.002Z,3.00
2018-07-10T01:55:50.829Z,2.40
2018-07-10T01:58:17.652Z,3.27
2018-07-10T02:00:44.552Z,2.93
2018-07-10T02:03:11.393Z,3.03
2018-07-10T02:05:38.225Z,2.98
2018-07-10T02:08:05.050Z,2.60
2018-07-10T02:10:31.881Z,3.20
2018-07-10T02:12:58.707Z,2.80
2018-07-10T02:15:25.520Z,2.77
2018-07-10T02:17:52.337Z,2.87
2018-07-10T02:20:19.158Z,3.03
2018-07-10T02:22:45.978Z,2.93
2018-07-10T02:25:12.799Z,2.80
2018-07-10T02:27:39.618Z,2.67
2018-07-10T02:30:06.437Z,3.27
2018-07-10T02:32:33.309Z,3.47
2018-07-10T02:35:00.118Z,3.03
2018-07-10T02:37:26.941Z,3.00
2018-07-10T02:39:53.757Z,3.10
2018-07-10T02:42:20.996Z,3.90
2018-07-10T02:44:47.723Z,2.80
2018-07-10T02:47:14.691Z,3.00
2018-07-10T02:49:41.518Z,3.30
2018-07-10T02:52:08.456Z,2.70
2018-07-10T02:54:35.282Z,2.87
2018-07-10T02:57:02.097Z,2.87
2018-07-10T02:59:28.924Z,3.50
2018-07-10T03:01:55.832Z,2.67
2018-07-10T03:04:22.646Z,3.90
2018-07-10T03:06:49.471Z,2.60
2018-07-10T03:09:16.299Z,2.90
2018-07-10T03:11:43.209Z,2.80
2018-07-10T03:14:10.011Z,3.03
2018-07-10T03:16:36.844Z,3.37
2018-07-10T03:19:03.660Z,2.90
2018-07-10T03:21:30.573Z,2.95
2018-07-10T03:23:57.409Z,3.95
2018-07-10T03:26:24.227Z,3.15
2018-07-10T03:28:51.047Z,2.67
2018-07-10T03:31:17.949Z,2.73
2018-07-10T03:33:44.770Z,2.93
2018-07-10T03:36:11.586Z,3.03
2018-07-10T03:38:38.409Z,6.63
2018-07-10T03:41:05.319Z,2.90
2018-07-10T03:43:32.146Z,3.37
2018-07-10T03:45:58.980Z,3.10
2018-07-10T03:48:25.832Z,3.30
2018-07-10T03:50:52.689Z,3.33
2018-07-10T03:53:19.507Z,3.03
2018-07-10T03:55:46.337Z,2.90
2018-07-10T03:58:13.176Z,2.90
2018-07-10T04:00:40.057Z,4.67
2018-07-10T04:03:06.891Z,3.20
2018-07-10T04:05:33.714Z,3.47
2018-07-10T04:08:00.535Z,3.00
2018-07-10T04:10:27.469Z,4.23
2018-07-10T04:12:54.725Z,3.80
2018-07-10T04:15:21.518Z,3.47
2018-07-10T04:17:48.353Z,3.77
2018-07-10T04:20:15.183Z,3.90
2018-07-10T04:22:42.012Z,2.70
2018-07-10T04:25:08.825Z,2.70
2018-07-10T04:27:35.656Z,5.20
2018-07-10T04:30:02.532Z,5.20
2018-07-10T04:32:29.425Z,5.05
2018-07-10T04:34:56.246Z,9.03
2018-07-10T04:37:23.085Z,3.70
2018-07-10T04:39:49.909Z,3.90
2018-07-10T04:42:16.818Z,3.57
2018-07-10T04:44:43.735Z,5.00
2018-07-10T04:47:10.802Z,3.03
2018-07-10T04:49:37.610Z,7.73
2018-07-10T04:52:04.581Z,3.20
2018-07-10T04:54:31.404Z,3.83
2018-07-10T04:56:58.238Z,4.97
2018-07-10T04:59:25.105Z,3.03
2018-07-10T05:01:51.958Z,7.13
2018-07-10T05:04:18.787Z,3.70
2018-07-10T05:06:45.604Z,4.83
2018-07-10T05:09:12.458Z,4.60
2018-07-10T05:11:39.330Z,8.07
2018-07-10T05:14:06.157Z,4.93
2018-07-10T05:16:32.988Z,7.27
2018-07-10T05:18:59.809Z,3.40
2018-07-10T05:21:26.699Z,5.17
2018-07-10T05:23:53.531Z,11.27
2018-07-10T05:26:20.347Z,3.77
2018-07-10T05:28:47.215Z,3.35
2018-07-10T05:31:14.063Z,6.83
2018-07-10T05:33:40.893Z,5.07
2018-07-10T05:36:07.726Z,4.20
2018-07-10T05:38:34.583Z,3.57
2018-07-10T05:41:01.443Z,4.63
2018-07-10T05:43:28.262Z,7.00
2018-07-10T05:45:55.084Z,6.97
2018-07-10T05:48:21.918Z,5.53
2018-07-10T05:50:48.804Z,4.12
2018-07-10T05:53:15.634Z,5.53
2018-07-10T05:55:42.455Z,4.03
2018-07-10T05:58:09.286Z,4.63
2018-07-10T06:00:36.220Z,4.30
2018-07-10T06:03:03.061Z,7.00
2018-07-10T06:05:29.894Z,6.03
2018-07-10T06:07:56.706Z,3.30
2018-07-10T06:10:23.554Z,9.40
2018-07-10T06:12:50.359Z,3.62
2018-07-10T06:15:17.219Z,3.60
2018-07-10T06:17:44.023Z,3.93
2018-07-10T06:20:10.839Z,3.70
2018-07-10T06:22:37.687Z,6.87
2018-07-10T06:25:04.690Z,4.70
2018-07-10T06:27:31.577Z,3.30
2018-07-10T06:29:58.771Z,3.40
2018-07-10T06:32:25.547Z,4.50
2018-07-10T06:34:52.374Z,3.37
2018-07-10T06:37:19.312Z,4.50
2018-07-10T06:39:46.192Z,3.33
2018-07-10T06:42:13.128Z,3.65
2018-07-10T06:44:39.950Z,6.20
2018-07-10T06:47:06.774Z,5.62
2018-07-10T06:49:33.598Z,3.33
2018-07-10T06:52:00.496Z,4.10
2018-07-10T06:54:27.319Z,8.77
2018-07-10T06:56:54.137Z,13.33
2018-07-10T06:59:20.966Z,10.60
2018-07-10T07:01:47.866Z,13.17
2018-07-10T07:04:15.302Z,8.13
2018-07-10T07:06:42.134Z,24.43
2018-07-10T07:09:08.979Z,11.70
2018-07-10T07:11:35.861Z,12.00
2018-07-10T07:14:02.674Z,14.63
2018-07-10T07:16:29.507Z,15.53
2018-07-10T07:18:56.334Z,29.00
2018-07-10T07:21:23.235Z,15.17
2018-07-10T07:23:50.121Z,16.27
2018-07-10T07:26:16.909Z,13.35
2018-07-10T07:28:43.730Z,10.45
2018-07-10T07:31:10.602Z,12.17
2018-07-10T07:33:37.425Z,15.43
2018-07-10T07:36:04.262Z,13.03
2018-07-10T07:38:31.091Z,8.93
2018-07-10T07:40:57.973Z,10.10
2018-07-10T07:43:24.806Z,15.30
2018-07-10T07:45:51.635Z,14.50
2018-07-10T07:48:18.468Z,12.30
2018-07-10T07:50:45.334Z,52.53
2018-07-10T07:53:12.155Z,17.73
2018-07-10T07:55:38.991Z,25.23
2018-07-10T07:58:05.983Z,24.20
2018-07-10T08:00:32.968Z,17.10
2018-07-10T08:02:59.635Z,15.40
2018-07-10T08:05:26.458Z,14.33
2018-07-10T08:07:53.292Z,12.47
2018-07-10T08:10:20.122Z,12.68
2018-07-10T08:12:46.944Z,14.67
2018-07-10T08:15:14.158Z,13.00
2018-07-10T08:17:40.905Z,12.17
2018-07-10T08:20:07.726Z,10.87
2018-07-10T08:22:34.702Z,14.83
2018-07-10T08:25:01.596Z,11.83
2018-07-10T08:27:28.406Z,15.57
2018-07-10T08:29:55.220Z,11.20
2018-07-10T08:32:22.387Z,17.83
2018-07-10T08:34:49.222Z,13.53
2018-07-10T08:37:16.043Z,14.50
2018-07-10T08:39:42.870Z,18.13
2018-07-10T08:42:09.858Z,17.57
2018-07-10T08:44:36.684Z,16.93
2018-07-10T08:47:03.516Z,20.43
2018-07-10T08:49:30.351Z,17.95
2018-07-10T08:51:57.235Z,16.53
2018-07-10T08:54:24.059Z,16.80
2018-07-10T08:56:50.897Z,13.43
2018-07-10T08:59:18.925Z,14.03
2018-07-10T09:01:45.835Z,14.70
2018-07-10T09:04:12.682Z,13.60
2018-07-10T09:06:39.561Z,14.38
2018-07-10T09:09:06.375Z,11.70
2018-07-10T09:11:33.429Z,10.90
2018-07-10T09:14:00.285Z,12.13
2018-07-10T09:16:27.084Z,10.53
2018-07-10T09:18:53.919Z,13.67
2018-07-10T09:21:20.779Z,13.13
2018-07-10T09:23:47.606Z,11.87
2018-07-10T09:26:14.439Z,12.63
2018-07-10T09:28:41.279Z,12.13
2018-07-10T09:31:08.158Z,12.10
2018-07-10T09:33:35.125Z,13.08
2018-07-10T09:36:01.811Z,20.93
2018-07-10T09:38:28.643Z,16.07
2018-07-10T09:40:55.525Z,11.70
2018-07-10T09:43:22.359Z,11.63
2018-07-10T09:45:49.178Z,14.63
2018-07-10T09:48:16.017Z,10.67
2018-07-10T09:50:42.900Z,12.90
2018-07-10T09:53:09.738Z,10.98
2018-07-10T09:55:36.559Z,13.00
2018-07-10T09:58:03.407Z,20.53
2018-07-10T10:00:30.239Z,13.43
2018-07-10T10:02:57.066Z,10.80
2018-07-10T10:05:23.911Z,11.00
2018-07-10T10:07:50.735Z,16.57
2018-07-10T10:10:17.542Z,9.68
2018-07-10T10:12:44.391Z,10.83
2018-07-10T10:15:11.207Z,10.45
2018-07-10T10:17:38.058Z,10.10
2018-07-10T10:20:04.895Z,10.80
2018-07-10T10:22:31.849Z,10.73
2018-07-10T10:24:58.692Z,10.70
2018-07-10T10:27:25.525Z,22.13
2018-07-10T10:29:52.353Z,14.57
2018-07-10T10:32:19.391Z,14.57
2018-07-10T10:34:46.207Z,11.73
2018-07-10T10:37:13.030Z,13.50
2018-07-10T10:39:39.855Z,16.73
2018-07-10T10:42:06.806Z,15.60
2018-07-10T10:44:33.633Z,16.55
2018-07-10T10:47:00.497Z,16.33
2018-07-10T10:49:27.350Z,15.57
2018-07-10T10:51:54.178Z,16.83
2018-07-10T10:54:21.021Z,17.57
2018-07-10T10:56:47.849Z,17.70
2018-07-10T10:59:14.716Z,24.47
2018-07-10T11:01:41.539Z,22.07
2018-07-10T11:04:08.371Z,26.23
2018-07-10T11:06:35.206Z,18.03
2018-07-10T11:09:02.026Z,26.17
2018-07-10T11:11:28.926Z,25.00
2018-07-10T11:13:55.743Z,31.83
2018-07-10T11:16:22.568Z,28.23
2018-07-10T11:18:49.391Z,20.13
2018-07-10T11:21:16.294Z,25.32
2018-07-10T11:23:43.113Z,19.63
2018-07-10T11:26:09.932Z,18.75
2018-07-10T11:28:36.762Z,26.93
2018-07-10T11:31:03.655Z,18.70
2018-07-10T11:33:30.478Z,26.90
2018-07-10T11:35:57.305Z,29.03
2018-07-10T11:38:24.126Z,17.63
2018-07-10T11:40:51.030Z,19.60
2018-07-10T11:43:17.845Z,25.90
2018-07-10T11:45:44.703Z,21.23
2018-07-10T11:48:11.514Z,20.72
2018-07-10T11:50:38.405Z,19.60
2018-07-10T11:53:05.228Z,17.80
2018-07-10T11:55:32.059Z,17.40
2018-07-10T11:57:58.887Z,22.60
2018-07-10T12:00:25.726Z,20.10
2018-07-10T12:02:52.560Z,15.40
2018-07-10T12:05:19.390Z,15.85
2018-07-10T12:07:46.227Z,14.28
2018-07-10T12:10:13.045Z,16.57
2018-07-10T12:12:39.904Z,20.23
2018-07-10T12:15:06.744Z,16.70
2018-07-10T12:17:33.546Z,16.30
2018-07-10T12:20:00.358Z,14.43
2018-07-10T12:22:27.359Z,14.00
2018-07-10T12:24:54.179Z,13.90
2018-07-10T12:27:21.022Z,15.38
2018-07-10T12:29:47.841Z,20.67
2018-07-10T12:32:15.256Z,14.78
2018-07-10T12:34:42.162Z,15.67
2018-07-10T12:37:09.000Z,13.75
2018-07-10T12:39:35.834Z,14.05
2018-07-10T12:42:02.710Z,15.10
2018-07-10T12:44:29.549Z,15.63
2018-07-10T12:46:56.369Z,14.23
2018-07-10T12:49:23.267Z,15.27
2018-07-10T12:51:50.084Z,19.93
2018-07-10T12:54:16.911Z,13.03
2018-07-10T12:56:43.738Z,14.77
2018-07-10T12:59:10.570Z,12.50
2018-07-10T13:01:37.458Z,12.53
2018-07-10T13:04:04.279Z,13.93
2018-07-10T13:06:31.113Z,13.63
2018-07-10T13:08:57.924Z,13.97
2018-07-10T13:11:24.830Z,11.47
2018-07-10T13:13:51.649Z,13.70
2018-07-10T13:16:18.479Z,12.20
2018-07-10T13:18:45.306Z,14.87
2018-07-10T13:21:12.212Z,18.00
2018-07-10T13:23:39.029Z,13.40
2018-07-10T13:26:05.953Z,14.10
2018-07-10T13:28:32.812Z,16.20
2018-07-10T13:30:59.777Z,15.27
2018-07-10T13:33:26.605Z,11.63
2018-07-10T13:35:53.488Z,12.40
2018-07-10T13:38:20.259Z,12.73
2018-07-10T13:40:47.146Z,15.80
2018-07-10T13:43:13.983Z,16.42
2018-07-10T13:45:40.803Z,12.50
2018-07-10T13:48:07.626Z,12.70
2018-07-10T13:50:34.517Z,14.58
2018-07-10T13:53:01.349Z,11.90
2018-07-10T13:55:28.188Z,13.23
2018-07-10T13:57:55.013Z,10.80
2018-07-10T14:00:21.850Z,12.50
2018-07-10T14:02:48.673Z,11.10
2018-07-10T14:05:15.508Z,13.40
2018-07-10T14:07:42.346Z,13.83
2018-07-10T14:10:09.169Z,9.50
2018-07-10T14:12:36.014Z,9.57
2018-07-10T14:15:02.829Z,15.63
2018-07-10T14:17:29.660Z,13.83
2018-07-10T14:19:56.482Z,9.93
2018-07-10T14:22:23.530Z,9.13
2018-07-10T14:24:50.302Z,8.43
2018-07-10T14:27:17.133Z,8.43
2018-07-10T14:29:43.958Z,13.90
2018-07-10T14:32:10.837Z,9.20
2018-07-10T14:34:37.673Z,9.37
2018-07-10T14:37:04.501Z,8.27
2018-07-10T14:39:31.330Z,8.80
2018-07-10T14:41:58.229Z,8.20
2018-07-10T14:44:25.047Z,7.57
2018-07-10T14:46:51.870Z,10.63
2018-07-10T14:49:18.706Z,10.32
2018-07-10T14:51:45.592Z,11.53
2018-07-10T14:54:12.454Z,10.70
2018-07-10T14:56:39.252Z,12.23
2018-07-10T14:59:06.128Z,12.75
2018-07-10T15:01:32.956Z,9.67
2018-07-10T15:03:59.785Z,11.73
2018-07-10T15:06:26.611Z,16.73
2018-07-10T15:08:53.433Z,11.70
2018-07-10T15:11:20.349Z,10.27
2018-07-10T15:13:47.173Z,12.47
2018-07-10T15:16:14.004Z,7.90
2018-07-10T15:18:40.822Z,8.05
2018-07-10T15:21:07.702Z,12.07
2018-07-10T15:23:34.539Z,16.93
2018-07-10T15:26:01.343Z,11.23
2018-07-10T15:28:28.150Z,10.57
2018-07-10T15:30:55.397Z,11.37
2018-07-10T15:33:22.128Z,13.70
2018-07-10T15:35:48.972Z,15.30
2018-07-10T15:38:15.795Z,15.40
2018-07-10T15:40:42.679Z,12.58
2018-07-10T15:43:09.498Z,14.75
2018-07-10T15:45:36.323Z,10.93
2018-07-10T15:48:03.146Z,10.67
2018-07-10T15:50:30.024Z,8.33
2018-07-10T15:52:56.837Z,11.10
2018-07-10T15:55:24.336Z,7.20
2018-07-10T15:57:51.130Z,8.13
2018-07-10T16:00:17.962Z,9.07
2018-07-10T16:02:44.876Z,9.30
2018-07-10T16:05:11.680Z,8.00
2018-07-10T16:07:38.507Z,7.07
2018-07-10T16:10:05.315Z,8.03
2018-07-10T16:12:32.132Z,7.53
2018-07-10T16:14:58.978Z,13.63
2018-07-10T16:17:26.734Z,12.43
2018-07-10T16:19:53.542Z,10.43
2018-07-10T16:22:20.414Z,7.15
2018-07-10T16:24:47.250Z,6.87
2018-07-10T16:27:14.090Z,7.35
2018-07-10T16:29:40.913Z,10.23
2018-07-10T16:32:07.789Z,10.57
2018-07-10T16:34:34.608Z,6.77
2018-07-10T16:37:01.434Z,6.40
2018-07-10T16:39:28.269Z,18.73
2018-07-10T16:41:55.164Z,6.33
2018-07-10T16:44:21.990Z,7.37
2018-07-10T16:46:48.801Z,6.33
2018-07-10T16:49:15.627Z,17.67
2018-07-10T16:51:42.583Z,10.23
2018-07-10T16:54:09.411Z,7.70
2018-07-10T16:56:36.243Z,11.73
2018-07-10T16:59:03.072Z,11.27
2018-07-10T17:01:29.979Z,11.33
2018-07-10T17:03:57.147Z,11.23
2018-07-10T17:06:23.996Z,10.50
2018-07-10T17:08:50.884Z,9.27
2018-07-10T17:11:17.685Z,7.78
2018-07-10T17:13:44.726Z,10.03
2018-07-10T17:16:11.617Z,12.45
2018-07-10T17:18:38.456Z,5.45
2018-07-10T17:21:05.470Z,5.67
2018-07-10T17:23:32.297Z,12.00
2018-07-10T17:25:59.143Z,7.67
2018-07-10T17:28:25.960Z,7.23
2018-07-10T17:30:52.848Z,10.33
2018-07-10T17:33:19.678Z,8.63
2018-07-10T17:35:46.502Z,11.47
2018-07-10T17:38:13.587Z,15.23
2018-07-10T17:40:41.438Z,6.87
2018-07-10T17:43:08.261Z,6.93
2018-07-10T17:45:35.100Z,9.50
2018-07-10T17:48:01.932Z,10.75
2018-07-10T17:50:29.261Z,7.47
2018-07-10T17:52:56.066Z,5.67
2018-07-10T17:55:23.693Z,9.98
2018-07-10T17:57:50.514Z,7.63
2018-07-10T18:00:17.390Z,5.10
2018-07-10T18:02:44.230Z,9.70
2018-07-10T18:05:11.572Z,10.27
2018-07-10T18:07:38.383Z,5.43
2018-07-10T18:10:05.206Z,4.37
2018-07-10T18:12:32.043Z,10.83
2018-07-10T18:14:58.894Z,9.03
2018-07-10T18:17:26.760Z,9.33
2018-07-10T18:22:46.936Z,8.90
2018-07-10T18:25:23.687Z,5.37
2018-07-10T18:27:50.518Z,7.30
2018-07-10T18:30:17.460Z,7.03
2018-07-10T18:32:44.255Z,4.35
2018-07-10T18:35:11.107Z,8.18
2018-07-10T18:37:37.956Z,5.17
2018-07-10T18:40:04.780Z,8.37
2018-07-10T18:42:31.607Z,5.20
2018-07-10T18:44:58.398Z,7.50
2018-07-10T18:47:26.566Z,4.53
2018-07-10T18:49:53.370Z,7.67
2018-07-10T18:52:20.240Z,4.37
2018-07-10T18:54:47.126Z,4.08
2018-07-10T18:57:13.928Z,9.35
2018-07-10T18:59:41.201Z,7.53
2018-07-10T19:02:08.015Z,6.42
2018-07-10T19:04:34.860Z,6.55
2018-07-10T19:07:01.699Z,5.40
2018-07-10T19:09:28.536Z,8.43
2018-07-10T19:11:55.402Z,6.50
2018-07-10T19:14:22.218Z,5.47
2018-07-10T19:16:49.037Z,4.50
2018-07-10T19:19:15.881Z,5.83
2018-07-10T19:21:42.754Z,10.35
2018-07-10T19:24:09.605Z,5.75
2018-07-10T19:26:36.445Z,3.93
2018-07-10T19:29:03.285Z,3.63
2018-07-10T19:31:30.140Z,5.57
2018-07-10T19:33:56.971Z,3.80
2018-07-10T19:36:23.802Z,11.50
2018-07-10T19:38:50.624Z,10.63
2018-07-10T19:41:17.498Z,6.67
2018-07-10T19:43:44.311Z,6.47
2018-07-10T19:46:11.150Z,3.90
2018-07-10T19:48:37.995Z,5.50
2018-07-10T19:51:04.970Z,5.67
2018-07-10T19:53:31.789Z,12.37
2018-07-10T19:55:58.615Z,3.70
2018-07-10T19:58:25.440Z,4.03
2018-07-10T20:00:53.370Z,14.70
2018-07-10T20:03:21.740Z,9.60
2018-07-10T20:05:47.049Z,4.80
2018-07-10T20:08:13.873Z,4.50
2018-07-10T20:10:40.744Z,4.20
2018-07-10T20:13:07.579Z,6.90
2018-07-10T20:15:34.399Z,7.47
2018-07-10T20:18:01.228Z,5.13
2018-07-10T20:20:28.216Z,5.10
2018-07-10T20:22:55.235Z,5.00
2018-07-10T20:25:22.026Z,4.53
2018-07-10T20:27:49.037Z,3.53
2018-07-10T20:30:15.856Z,7.00
2018-07-10T20:32:42.700Z,7.83
2018-07-10T20:35:09.537Z,6.87
2018-07-10T20:37:36.364Z,6.93
2018-07-10T20:40:03.188Z,3.47
2018-07-10T20:42:30.013Z,5.80
2018-07-10T20:44:56.864Z,10.50
2018-07-10T20:47:24.096Z,3.60
2018-07-10T20:49:51.009Z,5.17
2018-07-10T20:52:17.883Z,4.53
2018-07-10T20:54:44.702Z,7.53
2018-07-10T20:57:11.532Z,3.63
2018-07-10T20:59:38.350Z,6.03
2018-07-10T21:02:05.265Z,4.53
2018-07-10T21:04:32.096Z,3.77
2018-07-10T21:06:58.924Z,4.87
2018-07-10T21:09:25.744Z,3.83
2018-07-10T21:11:52.626Z,5.70
2018-07-10T21:14:19.448Z,5.80
2018-07-10T21:16:46.274Z,9.33
2018-07-10T21:19:13.127Z,3.47
2018-07-10T21:21:39.997Z,7.73
2018-07-10T21:24:06.883Z,4.97
2018-07-10T21:26:33.700Z,4.57
2018-07-10T21:29:00.539Z,5.37
2018-07-10T21:31:27.367Z,3.12
2018-07-10T21:33:54.206Z,4.92
2018-07-10T21:36:21.039Z,3.50
2018-07-10T21:38:47.874Z,3.13
2018-07-10T21:41:14.738Z,4.40
2018-07-10T21:43:41.558Z,3.10
2018-07-10T21:46:08.389Z,4.20
2018-07-10T21:48:35.303Z,5.47
2018-07-10T21:51:02.110Z,3.50
2018-07-10T21:53:28.938Z,4.20
2018-07-10T21:55:55.762Z,3.25
2018-07-10T21:58:22.595Z,2.87
2018-07-10T22:00:49.496Z,3.10
2018-07-10T22:03:16.316Z,2.60
2018-07-10T22:05:43.142Z,4.43
2018-07-10T22:08:09.976Z,3.30
2018-07-10T22:10:36.901Z,3.20
2018-07-10T22:13:03.705Z,2.63
2018-07-10T22:15:30.526Z,2.80
2018-07-10T22:17:57.355Z,5.42
2018-07-10T22:20:24.184Z,3.10
2018-07-10T22:22:51.008Z,3.10
2018-07-10T22:25:17.828Z,2.83
2018-07-10T22:27:44.774Z,2.40
2018-07-10T22:30:11.595Z,2.97
2018-07-10T22:32:38.416Z,3.17
2018-07-10T22:35:05.249Z,2.90
2018-07-10T22:37:32.082Z,2.98
2018-07-10T22:39:58.914Z,2.90
2018-07-10T22:42:25.823Z,3.20
2018-07-10T22:44:52.632Z,3.40
2018-07-10T22:47:19.450Z,3.47
2018-07-10T22:49:46.276Z,2.97
2018-07-10T22:52:13.186Z,4.20
2018-07-10T22:54:40.013Z,2.73
2018-07-10T22:57:06.895Z,2.60
2018-07-10T22:59:33.735Z,3.85
2018-07-10T23:02:00.558Z,2.63
2018-07-10T23:04:27.405Z,2.62
2018-07-10T23:06:54.225Z,4.78
2018-07-10T23:09:21.045Z,2.80
2018-07-10T23:11:47.944Z,2.70
2018-07-10T23:14:14.759Z,2.57
2018-07-10T23:16:41.583Z,2.50
2018-07-10T23:19:08.418Z,2.93
2018-07-10T23:21:36.377Z,2.87
2018-07-10T23:24:03.157Z,2.47
2018-07-10T23:26:30.001Z,2.80
2018-07-10T23:28:56.822Z,2.87
2018-07-10T23:31:23.701Z,2.30
2018-07-10T23:33:50.519Z,2.33
2018-07-10T23:36:17.352Z,3.93
2018-07-10T23:38:44.173Z,2.47
2018-07-10T23:41:11.066Z,2.50
2018-07-10T23:43:37.890Z,3.13
2018-07-10T23:46:04.723Z,3.72
2018-07-10T23:48:31.560Z,2.60
2018-07-10T23:50:58.441Z,2.70
2018-07-10T23:53:25.285Z,2.37
2018-07-10T23:55:52.096Z,4.87
2018-07-10T23:58:18.914Z,2.50
